sensor_id;sensor_type;location;lat;lon;timestamp;P1;durP1;ratioP1;P2;durP2;ratioP2
68803;SDS011;55787;52.678;13.314;2022-08-19T00:01:25;21.90;;;14.50;;
68803;SDS011;55787;52.678;13.314;2022-08-19T00:03:56;20.48;;;14.23;;
68803;SDS011;55787;52.678;13.314;2022-08-19T00:06:24;21.65;;;13.90;;
68803;SDS011;55787;52.678;13.314;2022-08-19T00:08:50;20.20;;;14.13;;
68803;SDS011;55787;52.678;13.314;2022-08-19T00:11:17;22.05;;;14.82;;
68803;SDS011;55787;52.678;13.314;2022-08-19T00:13:51;22.17;;;14.23;;
68803;SDS011;55787;52.678;13.314;2022-08-19T00:16:18;21.75;;;14.07;;
68803;SDS011;55787;52.678;13.314;2022-08-19T00:18:52;22.65;;;14.13;;
68803;SDS011;55787;52.678;13.314;2022-08-19T00:21:19;20.13;;;12.93;;
68803;SDS011;55787;52.678;13.314;2022-08-19T00:23:46;20.60;;;13.32;;
68803;SDS011;55787;52.678;13.314;2022-08-19T00:26:13;20.97;;;14.60;;
68803;SDS011;55787;52.678;13.314;2022-08-19T00:28:39;20.10;;;13.50;;
68803;SDS011;55787;52.678;13.314;2022-08-19T00:31:06;20.60;;;13.93;;
68803;SDS011;55787;52.678;13.314;2022-08-19T00:33:34;20.35;;;13.55;;
68803;SDS011;55787;52.678;13.314;2022-08-19T00:36:02;20.52;;;14.60;;
68803;SDS011;55787;52.678;13.314;2022-08-19T00:38:32;19.30;;;12.63;;
68803;SDS011;55787;52.678;13.314;2022-08-19T00:41:03;19.75;;;13.70;;
68803;SDS011;55787;52.678;13.314;2022-08-19T00:43:33;20.52;;;13.18;;
68803;SDS011;55787;52.678;13.314;2022-08-19T00:45:59;18.23;;;12.25;;
68803;SDS011;55787;52.678;13.314;2022-08-19T00:48:27;19.38;;;12.93;;
68803;SDS011;55787;52.678;13.314;2022-08-19T00:50:53;19.13;;;13.60;;
68803;SDS011;55787;52.678;13.314;2022-08-19T00:53:23;19.60;;;12.93;;
68803;SDS011;55787;52.678;13.314;2022-08-19T00:55:53;19.63;;;13.18;;
68803;SDS011;55787;52.678;13.314;2022-08-19T00:58:23;19.42;;;12.90;;
68803;SDS011;55787;52.678;13.314;2022-08-19T01:00:53;19.13;;;12.98;;
68803;SDS011;55787;52.678;13.314;2022-08-19T01:03:20;20.33;;;13.77;;
68803;SDS011;55787;52.678;13.314;2022-08-19T01:05:48;18.90;;;12.77;;
68803;SDS011;55787;52.678;13.314;2022-08-19T01:08:17;18.52;;;12.15;;
68803;SDS011;55787;52.678;13.314;2022-08-19T01:10:46;18.48;;;12.52;;
68803;SDS011;55787;52.678;13.314;2022-08-19T01:13:20;17.48;;;12.10;;
68803;SDS011;55787;52.678;13.314;2022-08-19T01:15:54;18.20;;;12.53;;
68803;SDS011;55787;52.678;13.314;2022-08-19T01:18:22;19.65;;;12.00;;
68803;SDS011;55787;52.678;13.314;2022-08-19T01:20:51;18.70;;;12.75;;
68803;SDS011;55787;52.678;13.314;2022-08-19T01:23:20;18.05;;;12.38;;
68803;SDS011;55787;52.678;13.314;2022-08-19T01:25:47;19.35;;;12.25;;
68803;SDS011;55787;52.678;13.314;2022-08-19T01:28:18;19.30;;;12.17;;
68803;SDS011;55787;52.678;13.314;2022-08-19T01:30:59;16.73;;;11.48;;
68803;SDS011;55787;52.678;13.314;2022-08-19T01:33:25;17.52;;;11.95;;
68803;SDS011;55787;52.678;13.314;2022-08-19T01:35:52;18.42;;;12.10;;
68803;SDS011;55787;52.678;13.314;2022-08-19T01:38:20;18.50;;;12.20;;
68803;SDS011;55787;52.678;13.314;2022-08-19T01:40:50;18.20;;;12.17;;
68803;SDS011;55787;52.678;13.314;2022-08-19T01:43:18;19.95;;;13.15;;
68803;SDS011;55787;52.678;13.314;2022-08-19T01:45:45;17.75;;;12.38;;
68803;SDS011;55787;52.678;13.314;2022-08-19T01:48:12;19.48;;;12.88;;
68803;SDS011;55787;52.678;13.314;2022-08-19T01:50:39;21.50;;;13.48;;
68803;SDS011;55787;52.678;13.314;2022-08-19T01:53:07;19.60;;;12.97;;
68803;SDS011;55787;52.678;13.314;2022-08-19T01:55:38;19.98;;;12.98;;
68803;SDS011;55787;52.678;13.314;2022-08-19T01:58:08;21.05;;;13.52;;
68803;SDS011;55787;52.678;13.314;2022-08-19T02:00:41;18.33;;;12.52;;
68803;SDS011;55787;52.678;13.314;2022-08-19T02:03:08;19.88;;;12.50;;
68803;SDS011;55787;52.678;13.314;2022-08-19T02:05:36;20.23;;;13.30;;
68803;SDS011;55787;52.678;13.314;2022-08-19T02:08:03;20.55;;;13.70;;
68803;SDS011;55787;52.678;13.314;2022-08-19T02:10:30;19.48;;;12.88;;
68803;SDS011;55787;52.678;13.314;2022-08-19T02:12:56;19.30;;;13.27;;
68803;SDS011;55787;52.678;13.314;2022-08-19T02:15:23;21.52;;;13.65;;
68803;SDS011;55787;52.678;13.314;2022-08-19T02:17:51;21.07;;;13.37;;
68803;SDS011;55787;52.678;13.314;2022-08-19T02:20:18;23.02;;;14.38;;
68803;SDS011;55787;52.678;13.314;2022-08-19T02:22:45;21.38;;;13.05;;
68803;SDS011;55787;52.678;13.314;2022-08-19T02:25:12;18.77;;;12.70;;
68803;SDS011;55787;52.678;13.314;2022-08-19T02:27:40;16.95;;;11.88;;
68803;SDS011;55787;52.678;13.314;2022-08-19T02:30:09;18.80;;;12.17;;
68803;SDS011;55787;52.678;13.314;2022-08-19T02:32:39;20.63;;;12.68;;
68803;SDS011;55787;52.678;13.314;2022-08-19T02:35:10;19.38;;;11.85;;
68803;SDS011;55787;52.678;13.314;2022-08-19T02:37:38;17.08;;;11.60;;
68803;SDS011;55787;52.678;13.314;2022-08-19T02:40:23;20.30;;;12.50;;
68803;SDS011;55787;52.678;13.314;2022-08-19T02:42:49;18.30;;;12.10;;
68803;SDS011;55787;52.678;13.314;2022-08-19T02:45:16;19.73;;;12.98;;
68803;SDS011;55787;52.678;13.314;2022-08-19T02:47:43;19.80;;;12.60;;
68803;SDS011;55787;52.678;13.314;2022-08-19T02:50:09;21.95;;;13.52;;
68803;SDS011;55787;52.678;13.314;2022-08-19T02:52:36;21.35;;;13.50;;
68803;SDS011;55787;52.678;13.314;2022-08-19T02:55:03;20.73;;;12.60;;
68803;SDS011;55787;52.678;13.314;2022-08-19T02:57:30;20.73;;;13.57;;
68803;SDS011;55787;52.678;13.314;2022-08-19T02:59:58;19.17;;;13.40;;
68803;SDS011;55787;52.678;13.314;2022-08-19T03:02:24;24.80;;;13.18;;
68803;SDS011;55787;52.678;13.314;2022-08-19T03:04:51;22.42;;;13.40;;
68803;SDS011;55787;52.678;13.314;2022-08-19T03:07:17;21.70;;;13.20;;
68803;SDS011;55787;52.678;13.314;2022-08-19T03:09:44;20.05;;;13.43;;
68803;SDS011;55787;52.678;13.314;2022-08-19T03:12:11;20.00;;;13.32;;
68803;SDS011;55787;52.678;13.314;2022-08-19T03:14:38;24.52;;;14.02;;
68803;SDS011;55787;52.678;13.314;2022-08-19T03:17:04;22.98;;;14.27;;
68803;SDS011;55787;52.678;13.314;2022-08-19T03:19:30;21.70;;;13.90;;
68803;SDS011;55787;52.678;13.314;2022-08-19T03:21:57;21.38;;;14.20;;
68803;SDS011;55787;52.678;13.314;2022-08-19T03:24:24;21.27;;;14.40;;
68803;SDS011;55787;52.678;13.314;2022-08-19T03:26:52;23.15;;;14.60;;
68803;SDS011;55787;52.678;13.314;2022-08-19T03:29:24;22.75;;;14.73;;
68803;SDS011;55787;52.678;13.314;2022-08-19T03:31:56;24.03;;;16.03;;
68803;SDS011;55787;52.678;13.314;2022-08-19T03:34:24;25.42;;;15.93;;
68803;SDS011;55787;52.678;13.314;2022-08-19T03:36:53;22.88;;;15.18;;
68803;SDS011;55787;52.678;13.314;2022-08-19T03:39:22;23.88;;;14.68;;
68803;SDS011;55787;52.678;13.314;2022-08-19T03:41:50;24.45;;;15.38;;
68803;SDS011;55787;52.678;13.314;2022-08-19T03:44:38;23.00;;;14.80;;
68803;SDS011;55787;52.678;13.314;2022-08-19T03:47:05;19.98;;;13.25;;
68803;SDS011;55787;52.678;13.314;2022-08-19T03:49:32;21.00;;;12.93;;
68803;SDS011;55787;52.678;13.314;2022-08-19T03:52:02;20.63;;;13.00;;
68803;SDS011;55787;52.678;13.314;2022-08-19T03:54:31;19.55;;;12.85;;
68803;SDS011;55787;52.678;13.314;2022-08-19T03:56:58;21.00;;;13.50;;
68803;SDS011;55787;52.678;13.314;2022-08-19T03:59:31;20.88;;;13.50;;
68803;SDS011;55787;52.678;13.314;2022-08-19T04:02:00;21.08;;;13.38;;
68803;SDS011;55787;52.678;13.314;2022-08-19T04:04:29;20.45;;;12.88;;
68803;SDS011;55787;52.678;13.314;2022-08-19T04:06:57;19.20;;;12.68;;
68803;SDS011;55787;52.678;13.314;2022-08-19T04:09:24;20.00;;;12.57;;
68803;SDS011;55787;52.678;13.314;2022-08-19T04:11:52;20.52;;;13.15;;
68803;SDS011;55787;52.678;13.314;2022-08-19T04:14:21;21.05;;;13.60;;
68803;SDS011;55787;52.678;13.314;2022-08-19T04:16:50;18.13;;;12.60;;
68803;SDS011;55787;52.678;13.314;2022-08-19T04:19:17;20.55;;;13.07;;
68803;SDS011;55787;52.678;13.314;2022-08-19T04:21:45;19.47;;;13.30;;
68803;SDS011;55787;52.678;13.314;2022-08-19T04:24:15;22.50;;;13.27;;
68803;SDS011;55787;52.678;13.314;2022-08-19T04:26:44;20.65;;;13.55;;
68803;SDS011;55787;52.678;13.314;2022-08-19T04:29:12;20.25;;;12.70;;
68803;SDS011;55787;52.678;13.314;2022-08-19T04:31:41;20.25;;;13.20;;
68803;SDS011;55787;52.678;13.314;2022-08-19T04:34:11;20.70;;;12.33;;
68803;SDS011;55787;52.678;13.314;2022-08-19T04:36:40;20.65;;;12.93;;
68803;SDS011;55787;52.678;13.314;2022-08-19T04:39:12;21.38;;;13.15;;
68803;SDS011;55787;52.678;13.314;2022-08-19T04:41:43;19.25;;;12.63;;
68803;SDS011;55787;52.678;13.314;2022-08-19T04:44:32;21.23;;;12.85;;
68803;SDS011;55787;52.678;13.314;2022-08-19T04:47:00;21.80;;;14.10;;
68803;SDS011;55787;52.678;13.314;2022-08-19T04:49:36;22.42;;;14.32;;
68803;SDS011;55787;52.678;13.314;2022-08-19T04:52:03;21.08;;;13.18;;
68803;SDS011;55787;52.678;13.314;2022-08-19T04:54:29;20.30;;;12.65;;
68803;SDS011;55787;52.678;13.314;2022-08-19T04:57:04;21.33;;;13.40;;
68803;SDS011;55787;52.678;13.314;2022-08-19T04:59:33;20.37;;;13.10;;
68803;SDS011;55787;52.678;13.314;2022-08-19T05:02:00;22.17;;;13.25;;
68803;SDS011;55787;52.678;13.314;2022-08-19T05:04:26;21.65;;;13.70;;
68803;SDS011;55787;52.678;13.314;2022-08-19T05:06:58;20.95;;;13.52;;
68803;SDS011;55787;52.678;13.314;2022-08-19T05:09:26;22.58;;;13.93;;
68803;SDS011;55787;52.678;13.314;2022-08-19T05:12:14;21.47;;;13.90;;
68803;SDS011;55787;52.678;13.314;2022-08-19T05:14:41;22.17;;;13.55;;
68803;SDS011;55787;52.678;13.314;2022-08-19T05:17:08;20.55;;;14.20;;
68803;SDS011;55787;52.678;13.314;2022-08-19T05:19:53;23.52;;;13.65;;
68803;SDS011;55787;52.678;13.314;2022-08-19T05:22:38;22.50;;;14.63;;
68803;SDS011;55787;52.678;13.314;2022-08-19T05:25:06;21.13;;;13.37;;
68803;SDS011;55787;52.678;13.314;2022-08-19T05:27:39;24.80;;;14.32;;
68803;SDS011;55787;52.678;13.314;2022-08-19T05:30:07;22.55;;;14.15;;
68803;SDS011;55787;52.678;13.314;2022-08-19T05:32:35;20.73;;;13.60;;
68803;SDS011;55787;52.678;13.314;2022-08-19T05:35:02;20.67;;;13.82;;
68803;SDS011;55787;52.678;13.314;2022-08-19T05:37:29;22.33;;;14.77;;
68803;SDS011;55787;52.678;13.314;2022-08-19T05:39:55;23.17;;;14.00;;
68803;SDS011;55787;52.678;13.314;2022-08-19T05:42:22;21.15;;;13.95;;
68803;SDS011;55787;52.678;13.314;2022-08-19T05:44:49;20.83;;;14.57;;
68803;SDS011;55787;52.678;13.314;2022-08-19T05:47:16;20.05;;;13.35;;
68803;SDS011;55787;52.678;13.314;2022-08-19T05:49:45;17.87;;;12.97;;
68803;SDS011;55787;52.678;13.314;2022-08-19T05:52:13;20.55;;;13.10;;
68803;SDS011;55787;52.678;13.314;2022-08-19T05:54:44;17.83;;;12.32;;
68803;SDS011;55787;52.678;13.314;2022-08-19T05:57:16;18.58;;;11.63;;
68803;SDS011;55787;52.678;13.314;2022-08-19T05:59:46;17.35;;;11.38;;
68803;SDS011;55787;52.678;13.314;2022-08-19T06:02:18;19.70;;;12.60;;
68803;SDS011;55787;52.678;13.314;2022-08-19T06:04:44;17.13;;;12.23;;
68803;SDS011;55787;52.678;13.314;2022-08-19T06:07:11;17.00;;;11.82;;
68803;SDS011;55787;52.678;13.314;2022-08-19T06:09:38;17.98;;;12.10;;
68803;SDS011;55787;52.678;13.314;2022-08-19T06:12:08;16.88;;;10.93;;
68803;SDS011;55787;52.678;13.314;2022-08-19T06:14:35;16.50;;;11.73;;
68803;SDS011;55787;52.678;13.314;2022-08-19T06:17:07;18.02;;;11.32;;
68803;SDS011;55787;52.678;13.314;2022-08-19T06:19:34;16.67;;;11.50;;
68803;SDS011;55787;52.678;13.314;2022-08-19T06:22:06;17.05;;;11.80;;
68803;SDS011;55787;52.678;13.314;2022-08-19T06:24:33;17.25;;;12.15;;
68803;SDS011;55787;52.678;13.314;2022-08-19T06:27:00;18.07;;;12.37;;
68803;SDS011;55787;52.678;13.314;2022-08-19T06:29:27;16.25;;;12.07;;
68803;SDS011;55787;52.678;13.314;2022-08-19T06:31:54;19.15;;;12.88;;
68803;SDS011;55787;52.678;13.314;2022-08-19T06:34:22;19.48;;;12.57;;
68803;SDS011;55787;52.678;13.314;2022-08-19T06:36:49;18.52;;;13.10;;
68803;SDS011;55787;52.678;13.314;2022-08-19T06:39:20;18.50;;;13.07;;
68803;SDS011;55787;52.678;13.314;2022-08-19T06:41:50;18.52;;;13.73;;
68803;SDS011;55787;52.678;13.314;2022-08-19T06:44:24;17.95;;;12.82;;
68803;SDS011;55787;52.678;13.314;2022-08-19T06:46:55;18.27;;;13.50;;
68803;SDS011;55787;52.678;13.314;2022-08-19T06:49:22;18.75;;;13.73;;
68803;SDS011;55787;52.678;13.314;2022-08-19T06:51:49;18.77;;;13.20;;
68803;SDS011;55787;52.678;13.314;2022-08-19T06:54:17;18.65;;;13.00;;
68803;SDS011;55787;52.678;13.314;2022-08-19T06:56:45;20.30;;;13.43;;
68803;SDS011;55787;52.678;13.314;2022-08-19T06:59:17;16.60;;;12.68;;
68803;SDS011;55787;52.678;13.314;2022-08-19T07:01:46;17.63;;;12.77;;
68803;SDS011;55787;52.678;13.314;2022-08-19T07:04:15;18.47;;;13.87;;
68803;SDS011;55787;52.678;13.314;2022-08-19T07:06:44;17.77;;;12.85;;
68803;SDS011;55787;52.678;13.314;2022-08-19T07:09:20;18.85;;;12.82;;
68803;SDS011;55787;52.678;13.314;2022-08-19T07:11:47;18.30;;;13.07;;
68803;SDS011;55787;52.678;13.314;2022-08-19T07:14:16;18.52;;;14.02;;
68803;SDS011;55787;52.678;13.314;2022-08-19T07:16:46;19.10;;;13.63;;
68803;SDS011;55787;52.678;13.314;2022-08-19T07:19:14;18.17;;;13.73;;
68803;SDS011;55787;52.678;13.314;2022-08-19T07:21:44;21.15;;;14.20;;
68803;SDS011;55787;52.678;13.314;2022-08-19T07:24:16;19.48;;;14.43;;
68803;SDS011;55787;52.678;13.314;2022-08-19T07:26:43;18.98;;;14.80;;
68803;SDS011;55787;52.678;13.314;2022-08-19T07:29:10;19.70;;;14.77;;
68803;SDS011;55787;52.678;13.314;2022-08-19T07:31:38;21.42;;;14.45;;
68803;SDS011;55787;52.678;13.314;2022-08-19T07:34:09;19.58;;;14.20;;
68803;SDS011;55787;52.678;13.314;2022-08-19T07:36:40;19.20;;;14.35;;
68803;SDS011;55787;52.678;13.314;2022-08-19T07:39:09;20.60;;;14.20;;
68803;SDS011;55787;52.678;13.314;2022-08-19T07:41:39;19.33;;;13.53;;
68803;SDS011;55787;52.678;13.314;2022-08-19T07:44:06;18.45;;;13.95;;
68803;SDS011;55787;52.678;13.314;2022-08-19T07:46:35;19.35;;;14.10;;
68803;SDS011;55787;52.678;13.314;2022-08-19T07:49:04;19.42;;;14.50;;
68803;SDS011;55787;52.678;13.314;2022-08-19T07:51:32;20.88;;;14.57;;
68803;SDS011;55787;52.678;13.314;2022-08-19T07:54:02;18.50;;;14.27;;
68803;SDS011;55787;52.678;13.314;2022-08-19T07:56:29;19.17;;;14.18;;
68803;SDS011;55787;52.678;13.314;2022-08-19T07:58:56;21.35;;;14.43;;
68803;SDS011;55787;52.678;13.314;2022-08-19T08:01:24;18.13;;;13.48;;
68803;SDS011;55787;52.678;13.314;2022-08-19T08:03:52;18.63;;;13.30;;
68803;SDS011;55787;52.678;13.314;2022-08-19T08:06:39;18.70;;;13.93;;
68803;SDS011;55787;52.678;13.314;2022-08-19T08:09:35;18.92;;;13.38;;
68803;SDS011;55787;52.678;13.314;2022-08-19T08:12:12;21.30;;;13.82;;
68803;SDS011;55787;52.678;13.314;2022-08-19T08:15:00;19.65;;;13.88;;
68803;SDS011;55787;52.678;13.314;2022-08-19T08:17:33;18.95;;;14.25;;
68803;SDS011;55787;52.678;13.314;2022-08-19T08:20:16;19.17;;;13.07;;
68803;SDS011;55787;52.678;13.314;2022-08-19T08:22:44;20.38;;;13.50;;
68803;SDS011;55787;52.678;13.314;2022-08-19T08:25:30;18.17;;;13.68;;
68803;SDS011;55787;52.678;13.314;2022-08-19T08:27:59;19.63;;;13.15;;
68803;SDS011;55787;52.678;13.314;2022-08-19T08:30:26;19.15;;;13.63;;
68803;SDS011;55787;52.678;13.314;2022-08-19T08:32:56;17.37;;;12.83;;
68803;SDS011;55787;52.678;13.314;2022-08-19T08:35:23;18.17;;;13.32;;
68803;SDS011;55787;52.678;13.314;2022-08-19T08:37:51;18.15;;;12.50;;
68803;SDS011;55787;52.678;13.314;2022-08-19T08:40:27;19.42;;;12.57;;
68803;SDS011;55787;52.678;13.314;2022-08-19T08:42:57;18.83;;;13.45;;
68803;SDS011;55787;52.678;13.314;2022-08-19T08:45:35;18.20;;;13.27;;
68803;SDS011;55787;52.678;13.314;2022-08-19T08:48:12;18.15;;;12.70;;
68803;SDS011;55787;52.678;13.314;2022-08-19T08:50:49;17.98;;;12.90;;
68803;SDS011;55787;52.678;13.314;2022-08-19T08:53:20;17.45;;;12.82;;
68803;SDS011;55787;52.678;13.314;2022-08-19T08:55:58;18.95;;;12.88;;
68803;SDS011;55787;52.678;13.314;2022-08-19T08:58:41;18.47;;;12.30;;
68803;SDS011;55787;52.678;13.314;2022-08-19T09:01:33;17.30;;;12.90;;
68803;SDS011;55787;52.678;13.314;2022-08-19T09:03:59;17.55;;;13.18;;
68803;SDS011;55787;52.678;13.314;2022-08-19T09:06:32;18.23;;;13.10;;
68803;SDS011;55787;52.678;13.314;2022-08-19T09:09:20;18.45;;;12.73;;
68803;SDS011;55787;52.678;13.314;2022-08-19T09:12:00;19.60;;;15.17;;
68803;SDS011;55787;52.678;13.314;2022-08-19T09:14:59;16.67;;;12.70;;
68803;SDS011;55787;52.678;13.314;2022-08-19T09:17:27;18.70;;;13.45;;
68803;SDS011;55787;52.678;13.314;2022-08-19T09:22:37;20.38;;;13.88;;
68803;SDS011;55787;52.678;13.314;2022-08-19T09:25:05;17.60;;;12.63;;
68803;SDS011;55787;52.678;13.314;2022-08-19T09:27:35;20.40;;;12.60;;
68803;SDS011;55787;52.678;13.314;2022-08-19T09:30:10;19.60;;;12.63;;
68803;SDS011;55787;52.678;13.314;2022-08-19T09:32:41;18.35;;;12.25;;
68803;SDS011;55787;52.678;13.314;2022-08-19T09:35:08;16.23;;;12.32;;
68803;SDS011;55787;52.678;13.314;2022-08-19T09:37:35;18.67;;;12.70;;
68803;SDS011;55787;52.678;13.314;2022-08-19T09:40:03;17.52;;;13.00;;
68803;SDS011;55787;52.678;13.314;2022-08-19T09:42:30;17.75;;;12.55;;
68803;SDS011;55787;52.678;13.314;2022-08-19T09:45:00;18.73;;;12.20;;
68803;SDS011;55787;52.678;13.314;2022-08-19T09:47:30;17.23;;;11.77;;
68803;SDS011;55787;52.678;13.314;2022-08-19T09:49:58;16.17;;;11.27;;
68803;SDS011;55787;52.678;13.314;2022-08-19T09:52:24;17.08;;;11.77;;
68803;SDS011;55787;52.678;13.314;2022-08-19T09:54:57;16.77;;;11.38;;
68803;SDS011;55787;52.678;13.314;2022-08-19T09:57:24;15.25;;;11.23;;
68803;SDS011;55787;52.678;13.314;2022-08-19T09:59:51;15.40;;;11.55;;
68803;SDS011;55787;52.678;13.314;2022-08-19T10:02:17;15.70;;;10.87;;
68803;SDS011;55787;52.678;13.314;2022-08-19T10:04:47;15.07;;;10.88;;
68803;SDS011;55787;52.678;13.314;2022-08-19T10:07:32;15.13;;;11.35;;
68803;SDS011;55787;52.678;13.314;2022-08-19T10:10:04;15.30;;;10.55;;
68803;SDS011;55787;52.678;13.314;2022-08-19T10:12:33;14.90;;;10.50;;
68803;SDS011;55787;52.678;13.314;2022-08-19T10:15:00;15.00;;;10.63;;
68803;SDS011;55787;52.678;13.314;2022-08-19T10:17:27;16.58;;;10.60;;
68803;SDS011;55787;52.678;13.314;2022-08-19T10:19:58;16.20;;;11.02;;
68803;SDS011;55787;52.678;13.314;2022-08-19T10:22:26;15.80;;;11.02;;
68803;SDS011;55787;52.678;13.314;2022-08-19T10:24:52;17.35;;;11.43;;
68803;SDS011;55787;52.678;13.314;2022-08-19T10:27:19;16.27;;;11.33;;
68803;SDS011;55787;52.678;13.314;2022-08-19T10:29:46;16.98;;;11.57;;
68803;SDS011;55787;52.678;13.314;2022-08-19T10:32:14;14.57;;;10.48;;
68803;SDS011;55787;52.678;13.314;2022-08-19T10:34:41;15.40;;;11.25;;
68803;SDS011;55787;52.678;13.314;2022-08-19T10:37:14;16.80;;;11.20;;
68803;SDS011;55787;52.678;13.314;2022-08-19T10:39:56;16.03;;;10.80;;
68803;SDS011;55787;52.678;13.314;2022-08-19T10:42:23;14.57;;;10.63;;
68803;SDS011;55787;52.678;13.314;2022-08-19T10:44:50;14.55;;;10.65;;
68803;SDS011;55787;52.678;13.314;2022-08-19T10:47:17;14.68;;;10.60;;
68803;SDS011;55787;52.678;13.314;2022-08-19T10:49:54;14.73;;;11.00;;
68803;SDS011;55787;52.678;13.314;2022-08-19T10:52:41;15.30;;;11.00;;
68803;SDS011;55787;52.678;13.314;2022-08-19T10:55:16;15.23;;;10.88;;
68803;SDS011;55787;52.678;13.314;2022-08-19T10:58:09;15.73;;;10.90;;
68803;SDS011;55787;52.678;13.314;2022-08-19T11:00:40;14.63;;;10.20;;
68803;SDS011;55787;52.678;13.314;2022-08-19T11:03:07;15.52;;;10.48;;
68803;SDS011;55787;52.678;13.314;2022-08-19T11:05:35;14.90;;;10.70;;
68803;SDS011;55787;52.678;13.314;2022-08-19T11:08:05;13.73;;;9.85;;
68803;SDS011;55787;52.678;13.314;2022-08-19T11:10:49;16.73;;;10.63;;
68803;SDS011;55787;52.678;13.314;2022-08-19T11:13:16;13.95;;;10.43;;
68803;SDS011;55787;52.678;13.314;2022-08-19T11:15:42;14.82;;;10.88;;
68803;SDS011;55787;52.678;13.314;2022-08-19T11:18:09;15.23;;;10.23;;
68803;SDS011;55787;52.678;13.314;2022-08-19T11:20:38;14.68;;;10.60;;
68803;SDS011;55787;52.678;13.314;2022-08-19T11:23:05;13.10;;;9.95;;
68803;SDS011;55787;52.678;13.314;2022-08-19T11:25:32;13.85;;;9.55;;
68803;SDS011;55787;52.678;13.314;2022-08-19T11:27:59;15.15;;;9.40;;
68803;SDS011;55787;52.678;13.314;2022-08-19T11:30:25;14.23;;;9.77;;
68803;SDS011;55787;52.678;13.314;2022-08-19T11:32:52;14.38;;;9.55;;
68803;SDS011;55787;52.678;13.314;2022-08-19T11:35:18;13.98;;;9.63;;
68803;SDS011;55787;52.678;13.314;2022-08-19T11:37:45;14.00;;;9.15;;
68803;SDS011;55787;52.678;13.314;2022-08-19T11:40:12;12.60;;;8.48;;
68803;SDS011;55787;52.678;13.314;2022-08-19T11:42:38;14.13;;;8.80;;
68803;SDS011;55787;52.678;13.314;2022-08-19T11:45:23;12.23;;;8.45;;
68803;SDS011;55787;52.678;13.314;2022-08-19T11:47:51;12.00;;;8.70;;
68803;SDS011;55787;52.678;13.314;2022-08-19T11:50:18;14.18;;;8.90;;
68803;SDS011;55787;52.678;13.314;2022-08-19T11:52:46;12.50;;;8.80;;
68803;SDS011;55787;52.678;13.314;2022-08-19T11:55:13;12.23;;;8.27;;
68803;SDS011;55787;52.678;13.314;2022-08-19T11:57:40;12.23;;;8.30;;
68803;SDS011;55787;52.678;13.314;2022-08-19T12:00:10;12.18;;;8.40;;
68803;SDS011;55787;52.678;13.314;2022-08-19T12:02:38;13.50;;;8.48;;
68803;SDS011;55787;52.678;13.314;2022-08-19T12:05:05;13.48;;;9.02;;
68803;SDS011;55787;52.678;13.314;2022-08-19T12:07:37;12.77;;;8.50;;
68803;SDS011;55787;52.678;13.314;2022-08-19T12:10:04;12.10;;;8.40;;
68803;SDS011;55787;52.678;13.314;2022-08-19T12:12:31;13.13;;;8.90;;
68803;SDS011;55787;52.678;13.314;2022-08-19T12:14:57;13.07;;;8.75;;
68803;SDS011;55787;52.678;13.314;2022-08-19T12:17:27;13.35;;;8.75;;
68803;SDS011;55787;52.678;13.314;2022-08-19T12:19:54;13.10;;;9.30;;
68803;SDS011;55787;52.678;13.314;2022-08-19T12:22:21;12.80;;;9.25;;
68803;SDS011;55787;52.678;13.314;2022-08-19T12:24:48;19.50;;;14.73;;
68803;SDS011;55787;52.678;13.314;2022-08-19T12:27:16;14.73;;;9.60;;
68803;SDS011;55787;52.678;13.314;2022-08-19T12:30:04;14.02;;;9.45;;
68803;SDS011;55787;52.678;13.314;2022-08-19T12:32:32;13.77;;;8.70;;
68803;SDS011;55787;52.678;13.314;2022-08-19T12:34:59;15.57;;;9.48;;
68803;SDS011;55787;52.678;13.314;2022-08-19T12:37:28;14.73;;;9.50;;
68803;SDS011;55787;52.678;13.314;2022-08-19T12:39:55;14.40;;;9.63;;
68803;SDS011;55787;52.678;13.314;2022-08-19T12:42:22;13.90;;;9.43;;
68803;SDS011;55787;52.678;13.314;2022-08-19T12:44:49;15.00;;;10.00;;
68803;SDS011;55787;52.678;13.314;2022-08-19T12:47:16;13.75;;;9.02;;
68803;SDS011;55787;52.678;13.314;2022-08-19T12:49:44;14.65;;;9.15;;
68803;SDS011;55787;52.678;13.314;2022-08-19T12:52:20;12.35;;;8.70;;
68803;SDS011;55787;52.678;13.314;2022-08-19T12:54:49;13.90;;;9.80;;
68803;SDS011;55787;52.678;13.314;2022-08-19T12:57:20;12.60;;;8.80;;
68803;SDS011;55787;52.678;13.314;2022-08-19T12:59:51;12.30;;;8.43;;
68803;SDS011;55787;52.678;13.314;2022-08-19T13:02:19;12.30;;;8.70;;
68803;SDS011;55787;52.678;13.314;2022-08-19T13:04:46;12.45;;;8.60;;
68803;SDS011;55787;52.678;13.314;2022-08-19T13:07:12;12.23;;;8.63;;
68803;SDS011;55787;52.678;13.314;2022-08-19T13:09:39;12.77;;;8.43;;
68803;SDS011;55787;52.678;13.314;2022-08-19T13:12:08;12.88;;;8.85;;
68803;SDS011;55787;52.678;13.314;2022-08-19T13:14:39;12.70;;;8.50;;
68803;SDS011;55787;52.678;13.314;2022-08-19T13:17:07;12.30;;;8.50;;
68803;SDS011;55787;52.678;13.314;2022-08-19T13:19:35;12.00;;;8.35;;
68803;SDS011;55787;52.678;13.314;2022-08-19T13:22:02;11.87;;;8.03;;
68803;SDS011;55787;52.678;13.314;2022-08-19T13:24:38;13.10;;;8.23;;
68803;SDS011;55787;52.678;13.314;2022-08-19T13:27:10;11.73;;;8.75;;
68803;SDS011;55787;52.678;13.314;2022-08-19T13:29:36;12.20;;;8.35;;
68803;SDS011;55787;52.678;13.314;2022-08-19T13:32:21;11.68;;;9.02;;
68803;SDS011;55787;52.678;13.314;2022-08-19T13:35:07;11.70;;;8.10;;
68803;SDS011;55787;52.678;13.314;2022-08-19T13:37:36;11.52;;;8.05;;
68803;SDS011;55787;52.678;13.314;2022-08-19T13:40:13;11.00;;;8.27;;
68803;SDS011;55787;52.678;13.314;2022-08-19T13:42:45;10.40;;;7.95;;
68803;SDS011;55787;52.678;13.314;2022-08-19T13:45:14;11.27;;;7.82;;
68803;SDS011;55787;52.678;13.314;2022-08-19T13:47:45;12.00;;;8.13;;
68803;SDS011;55787;52.678;13.314;2022-08-19T13:50:26;12.27;;;7.68;;
68803;SDS011;55787;52.678;13.314;2022-08-19T13:52:54;11.25;;;8.05;;
68803;SDS011;55787;52.678;13.314;2022-08-19T13:55:22;11.10;;;7.82;;
68803;SDS011;55787;52.678;13.314;2022-08-19T13:57:51;12.20;;;8.13;;
68803;SDS011;55787;52.678;13.314;2022-08-19T14:00:19;11.30;;;7.87;;
68803;SDS011;55787;52.678;13.314;2022-08-19T14:02:49;12.45;;;8.15;;
68803;SDS011;55787;52.678;13.314;2022-08-19T14:05:17;12.13;;;8.65;;
68803;SDS011;55787;52.678;13.314;2022-08-19T14:07:44;12.18;;;8.38;;
68803;SDS011;55787;52.678;13.314;2022-08-19T14:10:11;12.52;;;9.20;;
68803;SDS011;55787;52.678;13.314;2022-08-19T14:12:39;11.60;;;8.40;;
68803;SDS011;55787;52.678;13.314;2022-08-19T14:15:06;12.93;;;8.25;;
68803;SDS011;55787;52.678;13.314;2022-08-19T14:17:34;11.82;;;8.38;;
68803;SDS011;55787;52.678;13.314;2022-08-19T14:20:04;12.40;;;8.40;;
68803;SDS011;55787;52.678;13.314;2022-08-19T14:22:36;11.65;;;8.32;;
68803;SDS011;55787;52.678;13.314;2022-08-19T14:25:07;12.20;;;8.43;;
68803;SDS011;55787;52.678;13.314;2022-08-19T14:27:36;11.50;;;7.95;;
68803;SDS011;55787;52.678;13.314;2022-08-19T14:30:04;12.32;;;8.07;;